sensor_id;sensor_type;location;lat;lon;timestamp;pressure;altitude;pressure_sealevel;temperature;humidity
74578;BME280;75151;49.086;33.418;2024-02-26T00:02:07;101363.91;;;-1.51;43.81
74578;BME280;75151;49.086;33.418;2024-02-26T00:04:35;101377.47;;;-2.52;45.60
74578;BME280;75151;49.086;33.418;2024-02-26T00:07:01;101372.19;;;-1.58;43.74
74578;BME280;75151;49.086;33.418;2024-02-26T00:09:29;101370.88;;;-1.00;43.21
74578;BME280;75151;49.086;33.418;2024-02-26T00:11:56;101370.94;;;-1.67;44.87
74578;BME280;75151;49.086;33.418;2024-02-26T00:14:24;101373.75;;;-2.63;47.02
74578;BME280;75151;49.086;33.418;2024-02-26T00:16:51;101370.66;;;-1.82;45.36
74578;BME280;75151;49.086;33.418;2024-02-26T00:19:18;101364.09;;;-2.30;46.02
74578;BME280;75151;49.086;33.418;2024-02-26T00:21:45;101371.47;;;-1.98;45.92
74578;BME280;75151;49.086;33.418;2024-02-26T00:24:11;101372.00;;;-2.12;45.61
74578;BME280;75151;49.086;33.418;2024-02-26T00:26:38;101363.25;;;-2.48;47.03
74578;BME280;75151;49.086;33.418;2024-02-26T00:29:05;101363.53;;;-1.88;47.00
74578;BME280;75151;49.086;33.418;2024-02-26T00:31:32;101363.75;;;-2.06;46.84
74578;BME280;75151;49.086;33.418;2024-02-26T00:34:00;101365.63;;;-2.06;46.82
74578;BME280;75151;49.086;33.418;2024-02-26T00:36:27;101369.81;;;-1.99;45.73
74578;BME280;75151;49.086;33.418;2024-02-26T00:38:54;101366.91;;;-2.54;47.47
74578;BME280;75151;49.086;33.418;2024-02-26T00:41:21;101368.03;;;-2.38;46.39
74578;BME280;75151;49.086;33.418;2024-02-26T00:43:48;101366.97;;;-2.88;47.83
74578;BME280;75151;49.086;33.418;2024-02-26T00:46:14;101374.09;;;-2.59;47.74
74578;BME280;75151;49.086;33.418;2024-02-26T00:48:41;101369.94;;;-3.13;47.83
74578;BME280;75151;49.086;33.418;2024-02-26T00:51:08;101370.38;;;-2.70;47.79
74578;BME280;75151;49.086;33.418;2024-02-26T00:53:35;101368.78;;;-1.98;46.75
74578;BME280;75151;49.086;33.418;2024-02-26T00:56:02;101375.41;;;-2.05;47.29
74578;BME280;75151;49.086;33.418;2024-02-26T00:58:29;101366.25;;;-2.72;47.95
74578;BME280;75151;49.086;33.418;2024-02-26T01:00:56;101375.03;;;-2.09;46.27
74578;BME280;75151;49.086;33.418;2024-02-26T01:03:23;101376.38;;;-2.79;47.63
74578;BME280;75151;49.086;33.418;2024-02-26T01:05:50;101374.13;;;-2.43;47.53
74578;BME280;75151;49.086;33.418;2024-02-26T01:08:18;101369.34;;;-1.13;44.68
74578;BME280;75151;49.086;33.418;2024-02-26T01:10:45;101368.25;;;-1.33;43.88
74578;BME280;75151;49.086;33.418;2024-02-26T01:13:12;101370.66;;;-1.82;45.69
74578;BME280;75151;49.086;33.418;2024-02-26T01:15:39;101361.28;;;-2.36;47.18
74578;BME280;75151;49.086;33.418;2024-02-26T01:18:06;101363.94;;;-2.52;46.95
74578;BME280;75151;49.086;33.418;2024-02-26T01:20:33;101362.31;;;-2.93;49.51
74578;BME280;75151;49.086;33.418;2024-02-26T01:22:59;101364.22;;;-1.81;46.46
74578;BME280;75151;49.086;33.418;2024-02-26T01:25:26;101356.25;;;-1.54;45.39
74578;BME280;75151;49.086;33.418;2024-02-26T01:27:54;101347.41;;;-1.66;46.57
74578;BME280;75151;49.086;33.418;2024-02-26T01:30:21;101347.13;;;-2.26;47.41
74578;BME280;75151;49.086;33.418;2024-02-26T01:32:48;101355.34;;;-1.76;46.66
74578;BME280;75151;49.086;33.418;2024-02-26T01:35:15;101356.00;;;-1.36;44.93
74578;BME280;75151;49.086;33.418;2024-02-26T01:37:42;101346.44;;;-1.60;45.57
74578;BME280;75151;49.086;33.418;2024-02-26T01:40:09;101347.91;;;-0.28;43.06
74578;BME280;75151;49.086;33.418;2024-02-26T01:42:39;101352.06;;;-0.20;41.40
74578;BME280;75151;49.086;33.418;2024-02-26T01:45:15;101350.50;;;-0.11;41.85
74578;BME280;75151;49.086;33.418;2024-02-26T01:47:50;101355.16;;;-1.20;43.71
74578;BME280;75151;49.086;33.418;2024-02-26T01:50:18;101352.66;;;-1.05;44.92
74578;BME280;75151;49.086;33.418;2024-02-26T01:52:49;101345.06;;;-0.86;45.11
74578;BME280;75151;49.086;33.418;2024-02-26T01:55:22;101344.56;;;-1.21;43.97
74578;BME280;75151;49.086;33.418;2024-02-26T01:57:50;101346.16;;;-0.39;43.27
74578;BME280;75151;49.086;33.418;2024-02-26T02:00:19;101330.44;;;-1.45;46.00
74578;BME280;75151;49.086;33.418;2024-02-26T02:02:48;101330.50;;;-1.57;45.98
74578;BME280;75151;49.086;33.418;2024-02-26T02:05:16;101324.03;;;-1.56;46.18
74578;BME280;75151;49.086;33.418;2024-02-26T02:07:44;101334.72;;;-2.55;46.90
74578;BME280;75151;49.086;33.418;2024-02-26T02:10:11;101328.16;;;-1.70;45.37
74578;BME280;75151;49.086;33.418;2024-02-26T02:12:38;101324.16;;;-1.29;46.21
74578;BME280;75151;49.086;33.418;2024-02-26T02:15:07;101325.38;;;-2.19;47.64
74578;BME280;75151;49.086;33.418;2024-02-26T02:17:34;101322.09;;;-2.78;48.24
74578;BME280;75151;49.086;33.418;2024-02-26T02:20:01;101318.94;;;-2.86;48.83
74578;BME280;75151;49.086;33.418;2024-02-26T02:22:28;101320.97;;;-2.93;49.01
74578;BME280;75151;49.086;33.418;2024-02-26T02:24:55;101310.34;;;-3.23;49.79
74578;BME280;75151;49.086;33.418;2024-02-26T02:27:22;101308.31;;;-3.04;49.11
74578;BME280;75151;49.086;33.418;2024-02-26T02:29:49;101316.34;;;-3.67;50.63
74578;BME280;75151;49.086;33.418;2024-02-26T02:32:17;101315.75;;;-3.58;49.75
74578;BME280;75151;49.086;33.418;2024-02-26T02:34:45;101305.06;;;-3.29;49.30
74578;BME280;75151;49.086;33.418;2024-02-26T02:37:12;101307.91;;;-3.59;51.36
74578;BME280;75151;49.086;33.418;2024-02-26T02:39:39;101306.78;;;-3.00;50.02
74578;BME280;75151;49.086;33.418;2024-02-26T02:42:06;101306.31;;;-2.69;49.51
74578;BME280;75151;49.086;33.418;2024-02-26T02:44:33;101309.75;;;-2.74;49.03
74578;BME280;75151;49.086;33.418;2024-02-26T02:46:59;101314.41;;;-2.41;48.76
74578;BME280;75151;49.086;33.418;2024-02-26T02:49:26;101311.75;;;-2.81;48.71
74578;BME280;75151;49.086;33.418;2024-02-26T02:51:53;101311.13;;;-2.43;48.81
74578;BME280;75151;49.086;33.418;2024-02-26T02:54:20;101313.28;;;-2.45;48.83
74578;BME280;75151;49.086;33.418;2024-02-26T02:56:47;101319.72;;;-2.46;47.52
74578;BME280;75151;49.086;33.418;2024-02-26T02:59:14;101314.00;;;-1.55;48.37
74578;BME280;75151;49.086;33.418;2024-02-26T03:01:41;101314.81;;;-1.00;44.65
74578;BME280;75151;49.086;33.418;2024-02-26T03:04:08;101308.69;;;-1.83;45.55
74578;BME280;75151;49.086;33.418;2024-02-26T03:06:34;101307.50;;;-2.20;47.66
74578;BME280;75151;49.086;33.418;2024-02-26T03:09:01;101305.63;;;-1.54;46.56
74578;BME280;75151;49.086;33.418;2024-02-26T03:11:29;101314.28;;;-2.34;47.83
74578;BME280;75151;49.086;33.418;2024-02-26T03:13:55;101314.00;;;-2.50;47.24
74578;BME280;75151;49.086;33.418;2024-02-26T03:16:22;101318.28;;;-3.05;49.04
74578;BME280;75151;49.086;33.418;2024-02-26T03:18:49;101330.53;;;-2.01;46.33
74578;BME280;75151;49.086;33.418;2024-02-26T03:21:16;101334.94;;;-2.85;48.44
74578;BME280;75151;49.086;33.418;2024-02-26T03:23:43;101343.44;;;-2.37;48.64
74578;BME280;75151;49.086;33.418;2024-02-26T03:26:10;101334.13;;;-2.97;48.68
74578;BME280;75151;49.086;33.418;2024-02-26T03:28:40;101337.16;;;-2.93;48.53
74578;BME280;75151;49.086;33.418;2024-02-26T03:31:07;101337.97;;;-2.81;49.35
74578;BME280;75151;49.086;33.418;2024-02-26T03:33:34;101343.78;;;-2.61;47.54
74578;BME280;75151;49.086;33.418;2024-02-26T03:36:01;101338.84;;;-3.04;48.81
74578;BME280;75151;49.086;33.418;2024-02-26T03:38:29;101339.53;;;-2.57;48.73
74578;BME280;75151;49.086;33.418;2024-02-26T03:40:56;101329.09;;;-2.65;47.92
74578;BME280;75151;49.086;33.418;2024-02-26T03:43:22;101321.59;;;-3.14;48.79
74578;BME280;75151;49.086;33.418;2024-02-26T03:45:49;101321.97;;;-3.46;50.01
74578;BME280;75151;49.086;33.418;2024-02-26T03:48:16;101304.47;;;-3.55;49.96
74578;BME280;75151;49.086;33.418;2024-02-26T03:50:43;101298.88;;;-3.42;50.63
74578;BME280;75151;49.086;33.418;2024-02-26T03:53:10;101299.84;;;-2.96;49.59
74578;BME280;75151;49.086;33.418;2024-02-26T03:55:40;101300.41;;;-2.55;49.96
74578;BME280;75151;49.086;33.418;2024-02-26T03:58:08;101294.72;;;-4.02;51.51
74578;BME280;75151;49.086;33.418;2024-02-26T04:00:36;101289.00;;;-3.36;50.21
74578;BME280;75151;49.086;33.418;2024-02-26T04:03:04;101286.34;;;-3.08;49.54
74578;BME280;75151;49.086;33.418;2024-02-26T04:05:31;101284.31;;;-2.89;48.69
74578;BME280;75151;49.086;33.418;2024-02-26T04:07:57;101280.91;;;-2.85;48.86
74578;BME280;75151;49.086;33.418;2024-02-26T04:10:24;101290.97;;;-3.43;50.29
74578;BME280;75151;49.086;33.418;2024-02-26T04:12:51;101299.06;;;-2.80;49.64
74578;BME280;75151;49.086;33.418;2024-02-26T04:15:18;101290.63;;;-3.47;50.88
74578;BME280;75151;49.086;33.418;2024-02-26T04:17:45;101299.09;;;-3.66;51.95
74578;BME280;75151;49.086;33.418;2024-02-26T04:20:15;101298.03;;;-3.77;52.00
74578;BME280;75151;49.086;33.418;2024-02-26T04:22:44;101300.69;;;-4.41;52.48
74578;BME280;75151;49.086;33.418;2024-02-26T04:25:11;101288.31;;;-3.66;52.40
74578;BME280;75151;49.086;33.418;2024-02-26T04:27:38;101284.41;;;-4.05;52.57
74578;BME280;75151;49.086;33.418;2024-02-26T04:30:06;101282.50;;;-4.57;54.32
74578;BME280;75151;49.086;33.418;2024-02-26T04:32:34;101288.03;;;-4.41;53.08
74578;BME280;75151;49.086;33.418;2024-02-26T04:35:02;101282.69;;;-4.59;54.17
74578;BME280;75151;49.086;33.418;2024-02-26T04:37:29;101283.25;;;-3.86;52.21
74578;BME280;75151;49.086;33.418;2024-02-26T04:39:58;101278.94;;;-4.28;52.46
74578;BME280;75151;49.086;33.418;2024-02-26T04:42:26;101276.91;;;-4.03;52.61
74578;BME280;75151;49.086;33.418;2024-02-26T04:44:54;101275.16;;;-3.86;52.50
74578;BME280;75151;49.086;33.418;2024-02-26T04:47:21;101284.69;;;-3.09;50.46
74578;BME280;75151;49.086;33.418;2024-02-26T04:49:52;101282.88;;;-3.43;52.07
74578;BME280;75151;49.086;33.418;2024-02-26T04:52:19;101291.31;;;-3.40;50.42
74578;BME280;75151;49.086;33.418;2024-02-26T04:54:46;101296.16;;;-4.29;53.23
74578;BME280;75151;49.086;33.418;2024-02-26T04:57:13;101308.69;;;-3.47;52.38
74578;BME280;75151;49.086;33.418;2024-02-26T04:59:39;101313.56;;;-2.30;49.25
74578;BME280;75151;49.086;33.418;2024-02-26T05:02:09;101327.25;;;-1.20;46.02
74578;BME280;75151;49.086;33.418;2024-02-26T05:04:36;101326.38;;;-1.43;47.08
74578;BME280;75151;49.086;33.418;2024-02-26T05:07:03;101334.41;;;-1.97;46.13
74578;BME280;75151;49.086;33.418;2024-02-26T05:09:31;101335.22;;;-1.97;46.79
74578;BME280;75151;49.086;33.418;2024-02-26T05:11:58;101343.88;;;-2.28;47.75
74578;BME280;75151;49.086;33.418;2024-02-26T05:14:25;101335.81;;;-3.54;50.26
74578;BME280;75151;49.086;33.418;2024-02-26T05:16:52;101337.78;;;-3.26;50.09
74578;BME280;75151;49.086;33.418;2024-02-26T05:19:19;101333.47;;;-1.75;46.58
74578;BME280;75151;49.086;33.418;2024-02-26T05:21:46;101343.53;;;-1.87;48.11
74578;BME280;75151;49.086;33.418;2024-02-26T05:24:16;101351.34;;;-2.18;48.25
74578;BME280;75151;49.086;33.418;2024-02-26T05:26:45;101338.69;;;-2.58;49.20
74578;BME280;75151;49.086;33.418;2024-02-26T05:29:12;101344.13;;;-3.20;50.51
74578;BME280;75151;49.086;33.418;2024-02-26T05:31:39;101351.91;;;-2.16;48.95
74578;BME280;75151;49.086;33.418;2024-02-26T05:34:08;101353.03;;;-3.08;50.08
74578;BME280;75151;49.086;33.418;2024-02-26T05:36:35;101369.53;;;-1.69;46.76
74578;BME280;75151;49.086;33.418;2024-02-26T05:39:02;101369.56;;;-1.97;46.32
74578;BME280;75151;49.086;33.418;2024-02-26T05:41:30;101368.81;;;-2.66;49.57
74578;BME280;75151;49.086;33.418;2024-02-26T05:43:58;101376.09;;;-2.55;48.82
74578;BME280;75151;49.086;33.418;2024-02-26T05:46:25;101372.66;;;-3.71;51.46
74578;BME280;75151;49.086;33.418;2024-02-26T05:48:53;101369.50;;;-3.21;51.11
74578;BME280;75151;49.086;33.418;2024-02-26T05:51:21;101370.50;;;-2.76;49.21
74578;BME280;75151;49.086;33.418;2024-02-26T05:53:48;101369.84;;;-3.06;51.08
74578;BME280;75151;49.086;33.418;2024-02-26T05:56:22;101378.50;;;-3.62;51.34
74578;BME280;75151;49.086;33.418;2024-02-26T05:58:49;101373.84;;;-3.44;51.08
74578;BME280;75151;49.086;33.418;2024-02-26T06:01:16;101374.66;;;-3.20;51.84
74578;BME280;75151;49.086;33.418;2024-02-26T06:03:44;101373.13;;;-3.27;51.75
74578;BME280;75151;49.086;33.418;2024-02-26T06:06:11;101368.06;;;-3.47;51.80
74578;BME280;75151;49.086;33.418;2024-02-26T06:08:38;101371.03;;;-3.37;52.32
74578;BME280;75151;49.086;33.418;2024-02-26T06:11:06;101372.97;;;-2.86;50.49
74578;BME280;75151;49.086;33.418;2024-02-26T06:13:36;101373.28;;;-3.46;52.06
74578;BME280;75151;49.086;33.418;2024-02-26T06:16:03;101371.03;;;-3.25;51.67
74578;BME280;75151;49.086;33.418;2024-02-26T06:18:30;101369.25;;;-3.20;50.77
74578;BME280;75151;49.086;33.418;2024-02-26T06:20:57;101372.44;;;-3.35;51.18
74578;BME280;75151;49.086;33.418;2024-02-26T06:23:24;101374.72;;;-2.80;50.54
74578;BME280;75151;49.086;33.418;2024-02-26T06:25:51;101372.06;;;-3.15;50.59
74578;BME280;75151;49.086;33.418;2024-02-26T06:28:19;101371.94;;;-3.08;51.06
74578;BME280;75151;49.086;33.418;2024-02-26T06:30:45;101370.69;;;-3.17;51.17
74578;BME280;75151;49.086;33.418;2024-02-26T06:33:12;101377.47;;;-2.52;50.26
74578;BME280;75151;49.086;33.418;2024-02-26T06:35:41;101379.59;;;-3.40;51.03
74578;BME280;75151;49.086;33.418;2024-02-26T06:38:08;101370.81;;;-2.61;49.85
74578;BME280;75151;49.086;33.418;2024-02-26T06:40:36;101375.84;;;-2.53;49.18
74578;BME280;75151;49.086;33.418;2024-02-26T06:43:03;101376.78;;;-2.59;48.71
74578;BME280;75151;49.086;33.418;2024-02-26T06:45:33;101372.19;;;-2.19;48.52
74578;BME280;75151;49.086;33.418;2024-02-26T06:48:00;101371.38;;;-3.22;51.28
74578;BME280;75151;49.086;33.418;2024-02-26T06:50:27;101362.47;;;-3.57;51.18
74578;BME280;75151;49.086;33.418;2024-02-26T06:52:53;101368.41;;;-2.46;49.83
74578;BME280;75151;49.086;33.418;2024-02-26T06:55:20;101363.63;;;-3.30;49.96
74578;BME280;75151;49.086;33.418;2024-02-26T06:57:47;101362.88;;;-1.95;48.06
74578;BME280;75151;49.086;33.418;2024-02-26T07:00:14;101369.09;;;-2.51;49.11
74578;BME280;75151;49.086;33.418;2024-02-26T07:02:43;101369.00;;;-2.56;49.29
74578;BME280;75151;49.086;33.418;2024-02-26T07:05:10;101357.56;;;-2.74;49.66
74578;BME280;75151;49.086;33.418;2024-02-26T07:07:38;101367.59;;;-2.58;49.10
74578;BME280;75151;49.086;33.418;2024-02-26T07:10:05;101370.47;;;-1.92;47.70
74578;BME280;75151;49.086;33.418;2024-02-26T07:12:33;101368.06;;;-2.21;48.99
74578;BME280;75151;49.086;33.418;2024-02-26T07:15:00;101375.19;;;-2.72;49.40
74578;BME280;75151;49.086;33.418;2024-02-26T07:17:27;101367.28;;;-2.05;48.38
74578;BME280;75151;49.086;33.418;2024-02-26T07:19:54;101368.53;;;-2.92;48.96
74578;BME280;75151;49.086;33.418;2024-02-26T07:22:21;101353.13;;;-1.96;47.05
74578;BME280;75151;49.086;33.418;2024-02-26T07:24:48;101356.41;;;-2.50;49.09
74578;BME280;75151;49.086;33.418;2024-02-26T07:27:15;101352.09;;;-3.02;50.38
74578;BME280;75151;49.086;33.418;2024-02-26T07:29:44;101361.06;;;-2.34;49.21
74578;BME280;75151;49.086;33.418;2024-02-26T07:32:11;101352.25;;;-2.41;50.34
74578;BME280;75151;49.086;33.418;2024-02-26T07:34:38;101353.63;;;-2.55;49.67
74578;BME280;75151;49.086;33.418;2024-02-26T07:37:08;101353.66;;;-1.94;48.54
74578;BME280;75151;49.086;33.418;2024-02-26T07:39:35;101355.34;;;-2.38;48.07
74578;BME280;75151;49.086;33.418;2024-02-26T07:42:03;101357.88;;;-2.31;48.15
74578;BME280;75151;49.086;33.418;2024-02-26T07:44:30;101354.59;;;-3.24;50.54
74578;BME280;75151;49.086;33.418;2024-02-26T07:46:57;101361.38;;;-1.86;48.23
74578;BME280;75151;49.086;33.418;2024-02-26T07:49:24;101349.22;;;-1.55;47.35
74578;BME280;75151;49.086;33.418;2024-02-26T07:51:51;101340.84;;;-1.54;46.43
74578;BME280;75151;49.086;33.418;2024-02-26T07:54:18;101342.72;;;-3.11;50.18
74578;BME280;75151;49.086;33.418;2024-02-26T07:56:46;101349.41;;;-2.06;49.14
74578;BME280;75151;49.086;33.418;2024-02-26T07:59:13;101352.63;;;-1.93;47.50
74578;BME280;75151;49.086;33.418;2024-02-26T08:01:40;101352.50;;;-2.43;48.55
74578;BME280;75151;49.086;33.418;2024-02-26T08:04:08;101339.19;;;-1.71;47.81
74578;BME280;75151;49.086;33.418;2024-02-26T08:06:35;101332.34;;;-2.07;47.68
74578;BME280;75151;49.086;33.418;2024-02-26T08:09:04;101330.47;;;-2.06;47.70
74578;BME280;75151;49.086;33.418;2024-02-26T08:11:32;101325.50;;;-1.65;47.92
74578;BME280;75151;49.086;33.418;2024-02-26T08:13:58;101333.03;;;-2.00;48.09
74578;BME280;75151;49.086;33.418;2024-02-26T08:16:25;101330.66;;;-1.47;46.65
74578;BME280;75151;49.086;33.418;2024-02-26T08:18:53;101330.41;;;-1.62;46.30
74578;BME280;75151;49.086;33.418;2024-02-26T08:21:20;101320.91;;;-1.09;45.27
74578;BME280;75151;49.086;33.418;2024-02-26T08:23:47;101325.41;;;-0.77;43.37
74578;BME280;75151;49.086;33.418;2024-02-26T08:26:14;101330.03;;;-0.72;44.83
74578;BME280;75151;49.086;33.418;2024-02-26T08:28:41;101326.13;;;-0.33;44.43
74578;BME280;75151;49.086;33.418;2024-02-26T08:31:08;101325.50;;;0.45;43.07
74578;BME280;75151;49.086;33.418;2024-02-26T08:33:34;101320.50;;;-0.26;44.29
74578;BME280;75151;49.086;33.418;2024-02-26T08:36:05;101318.06;;;-0.01;43.62
74578;BME280;75151;49.086;33.418;2024-02-26T08:38:32;101327.13;;;0.09;43.59
74578;BME280;75151;49.086;33.418;2024-02-26T08:41:02;101322.81;;;-1.65;46.87
74578;BME280;75151;49.086;33.418;2024-02-26T08:43:29;101329.25;;;-1.32;46.62
74578;BME280;75151;49.086;33.418;2024-02-26T08:45:57;101325.13;;;-0.27;44.55
74578;BME280;75151;49.086;33.418;2024-02-26T08:48:24;101324.03;;;0.01;43.31
74578;BME280;75151;49.086;33.418;2024-02-26T08:50:51;101322.09;;;-0.57;45.11
74578;BME280;75151;49.086;33.418;2024-02-26T08:53:18;101329.97;;;-0.99;45.40
74578;BME280;75151;49.086;33.418;2024-02-26T08:55:57;101322.38;;;-0.32;44.50
74578;BME280;75151;49.086;33.418;2024-02-26T08:58:23;101318.75;;;-1.07;45.38
74578;BME280;75151;49.086;33.418;2024-02-26T09:00:50;101325.91;;;-1.18;44.81
74578;BME280;75151;49.086;33.418;2024-02-26T09:03:18;101319.63;;;-0.80;44.78
74578;BME280;75151;49.086;33.418;2024-02-26T09:05:44;101330.13;;;-0.89;44.00
74578;BME280;75151;49.086;33.418;2024-02-26T09:08:11;101339.13;;;-0.83;44.53
74578;BME280;75151;49.086;33.418;2024-02-26T09:10:38;101333.72;;;-0.62;44.78
74578;BME280;75151;49.086;33.418;2024-02-26T09:13:05;101331.16;;;-0.90;45.25
74578;BME280;75151;49.086;33.418;2024-02-26T09:15:32;101329.84;;;-0.66;44.22
74578;BME280;75151;49.086;33.418;2024-02-26T09:17:59;101331.78;;;-0.13;44.76
74578;BME280;75151;49.086;33.418;2024-02-26T09:20:26;101328.41;;;0.70;42.98
74578;BME280;75151;49.086;33.418;2024-02-26T09:22:53;101329.56;;;-0.16;44.36
74578;BME280;75151;49.086;33.418;2024-02-26T09:25:20;101333.09;;;0.43;41.64
74578;BME280;75151;49.086;33.418;2024-02-26T09:27:47;101335.19;;;0.04;43.04
74578;BME280;75151;49.086;33.418;2024-02-26T09:30:14;101337.47;;;0.86;41.88
74578;BME280;75151;49.086;33.418;2024-02-26T09:32:41;101331.06;;;1.12;40.04
74578;BME280;75151;49.086;33.418;2024-02-26T09:35:08;101333.25;;;0.26;40.96
74578;BME280;75151;49.086;33.418;2024-02-26T09:37:35;101329.59;;;0.48;41.60
74578;BME280;75151;49.086;33.418;2024-02-26T09:40:04;101331.25;;;0.95;42.17
74578;BME280;75151;49.086;33.418;2024-02-26T09:42:34;101331.09;;;0.70;40.86
74578;BME280;75151;49.086;33.418;2024-02-26T09:45:05;101335.59;;;1.63;41.14
74578;BME280;75151;49.086;33.418;2024-02-26T09:47:35;101337.72;;;1.41;40.60
74578;BME280;75151;49.086;33.418;2024-02-26T09:50:03;101333.75;;;1.89;39.87
74578;BME280;75151;49.086;33.418;2024-02-26T09:52:33;101331.41;;;1.35;39.62
74578;BME280;75151;49.086;33.418;2024-02-26T09:55:01;101328.91;;;1.19;40.30
74578;BME280;75151;49.086;33.418;2024-02-26T09:57:30;101324.50;;;1.85;39.77
74578;BME280;75151;49.086;33.418;2024-02-26T09:59:59;101329.44;;;1.98;38.29
74578;BME280;75151;49.086;33.418;2024-02-26T10:02:30;101329.16;;;2.04;38.78
74578;BME280;75151;49.086;33.418;2024-02-26T10:05:02;101320.25;;;1.27;40.80
74578;BME280;75151;49.086;33.418;2024-02-26T10:07:32;101325.97;;;1.35;39.48
74578;BME280;75151;49.086;33.418;2024-02-26T10:09:59;101312.38;;;1.30;39.54
74578;BME280;75151;49.086;33.418;2024-02-26T10:12:26;101315.53;;;2.09;38.83
74578;BME280;75151;49.086;33.418;2024-02-26T10:14:55;101308.47;;;2.49;38.13
74578;BME280;75151;49.086;33.418;2024-02-26T10:17:22;101303.47;;;2.81;38.19
74578;BME280;75151;49.086;33.418;2024-02-26T10:19:49;101300.69;;;3.06;36.97
74578;BME280;75151;49.086;33.418;2024-02-26T10:22:18;101305.06;;;3.02;36.56
74578;BME280;75151;49.086;33.418;2024-02-26T10:24:46;101305.13;;;1.56;38.96
74578;BME280;75151;49.086;33.418;2024-02-26T10:27:14;101302.13;;;2.68;38.41
74578;BME280;75151;49.086;33.418;2024-02-26T10:29:41;101304.88;;;2.53;38.76
74578;BME280;75151;49.086;33.418;2024-02-26T10:32:09;101313.94;;;2.03;38.52
74578;BME280;75151;49.086;33.418;2024-02-26T10:34:39;101303.94;;;3.13;37.04
74578;BME280;75151;49.086;33.418;2024-02-26T10:37:09;101313.97;;;4.15;36.36
74578;BME280;75151;49.086;33.418;2024-02-26T10:39:36;101301.69;;;4.12;35.00
74578;BME280;75151;49.086;33.418;2024-02-26T10:42:05;101310.81;;;3.98;35.59
74578;BME280;75151;49.086;33.418;2024-02-26T10:44:36;101302.69;;;4.22;35.55
74578;BME280;75151;49.086;33.418;2024-02-26T10:47:03;101308.31;;;2.99;36.80
74578;BME280;75151;49.086;33.418;2024-02-26T10:49:30;101307.09;;;2.36;37.71
74578;BME280;75151;49.086;33.418;2024-02-26T10:51:57;101302.38;;;2.82;37.60
74578;BME280;75151;49.086;33.418;2024-02-26T10:54:26;101303.97;;;3.62;35.97
74578;BME280;75151;49.086;33.418;2024-02-26T10:56:57;101300.53;;;3.41;35.44
74578;BME280;75151;49.086;33.418;2024-02-26T10:59:26;101298.75;;;3.65;36.45
74578;BME280;75151;49.086;33.418;2024-02-26T11:01:54;101293.50;;;3.30;36.25
74578;BME280;75151;49.086;33.418;2024-02-26T11:04:22;101288.44;;;3.03;36.38
74578;BME280;75151;49.086;33.418;2024-02-26T11:06:54;101280.94;;;2.25;37.71
74578;BME280;75151;49.086;33.418;2024-02-26T11:09:23;101281.53;;;4.03;36.03
74578;BME280;75151;49.086;33.418;2024-02-26T11:11:50;101269.44;;;3.37;36.46
74578;BME280;75151;49.086;33.418;2024-02-26T11:14:22;101268.09;;;4.46;33.81
74578;BME280;75151;49.086;33.418;2024-02-26T11:16:54;101268.56;;;3.85;36.57
74578;BME280;75151;49.086;33.418;2024-02-26T11:19:24;101267.59;;;3.71;36.78
74578;BME280;75151;49.086;33.418;2024-02-26T11:21:52;101274.63;;;3.39;36.19
74578;BME280;75151;49.086;33.418;2024-02-26T11:24:19;101267.94;;;3.11;37.50
74578;BME280;75151;49.086;33.418;2024-02-26T11:27:05;101265.84;;;2.83;38.42
74578;BME280;75151;49.086;33.418;2024-02-26T11:29:50;101269.66;;;4.18;35.57
74578;BME280;75151;49.086;33.418;2024-02-26T11:32:18;101263.09;;;4.53;35.33
74578;BME280;75151;49.086;33.418;2024-02-26T11:34:46;101264.81;;;3.81;35.90
74578;BME280;75151;49.086;33.418;2024-02-26T11:37:16;101262.09;;;2.59;37.73
74578;BME280;75151;49.086;33.418;2024-02-26T11:39:45;101258.13;;;3.59;35.83
74578;BME280;75151;49.086;33.418;2024-02-26T11:42:15;101254.09;;;4.18;35.92
74578;BME280;75151;49.086;33.418;2024-02-26T11:44:42;101268.38;;;4.10;35.12
74578;BME280;75151;49.086;33.418;2024-02-26T11:47:20;101269.78;;;5.31;32.50
74578;BME280;75151;49.086;33.418;2024-02-26T11:49:47;101266.72;;;6.07;31.84
74578;BME280;75151;49.086;33.418;2024-02-26T11:52:15;101261.94;;;4.59;34.36
74578;BME280;75151;49.086;33.418;2024-02-26T11:54:53;101263.38;;;4.75;34.50
74578;BME280;75151;49.086;33.418;2024-02-26T11:57:27;101267.00;;;5.36;34.29
74578;BME280;75151;49.086;33.418;2024-02-26T11:59:56;101252.91;;;3.62;36.39
74578;BME280;75151;49.086;33.418;2024-02-26T12:02:44;101253.72;;;4.59;35.17
74578;BME280;75151;49.086;33.418;2024-02-26T12:05:20;101246.47;;;4.15;35.27
74578;BME280;75151;49.086;33.418;2024-02-26T12:08:01;101237.56;;;3.28;37.11
74578;BME280;75151;49.086;33.418;2024-02-26T12:10:36;101245.59;;;3.91;36.35
74578;BME280;75151;49.086;33.418;2024-02-26T12:13:13;101250.16;;;3.67;37.02
74578;BME280;75151;49.086;33.418;2024-02-26T12:15:56;101243.63;;;4.31;34.86
74578;BME280;75151;49.086;33.418;2024-02-26T12:18:25;101246.63;;;4.58;35.04
74578;BME280;75151;49.086;33.418;2024-02-26T12:21:02;101247.75;;;3.94;36.71
74578;BME280;75151;49.086;33.418;2024-02-26T12:23:31;101251.63;;;4.98;34.99
74578;BME280;75151;49.086;33.418;2024-02-26T12:26:00;101244.81;;;4.72;34.58
74578;BME280;75151;49.086;33.418;2024-02-26T12:28:33;101242.03;;;5.00;34.52
74578;BME280;75151;49.086;33.418;2024-02-26T12:31:00;101246.88;;;5.03;32.99
74578;BME280;75151;49.086;33.418;2024-02-26T12:33:28;101253.50;;;6.28;33.31
74578;BME280;75151;49.086;33.418;2024-02-26T12:35:56;101250.56;;;4.94;34.32
74578;BME280;75151;49.086;33.418;2024-02-26T12:38:23;101257.88;;;5.22;34.29
74578;BME280;75151;49.086;33.418;2024-02-26T12:40:50;101244.19;;;3.60;35.68
74578;BME280;75151;49.086;33.418;2024-02-26T12:43:17;101252.66;;;4.26;35.28
74578;BME280;75151;49.086;33.418;2024-02-26T12:45:44;101245.41;;;5.72;33.73
74578;BME280;75151;49.086;33.418;2024-02-26T12:48:14;101251.19;;;5.70;33.80